createdAt,value
2023-01-25T00:00:07.281Z,2.18
2023-01-25T00:01:07.359Z,2.20
2023-01-25T00:02:07.314Z,2.21
2023-01-25T00:03:07.308Z,2.20
2023-01-25T00:04:07.244Z,2.18
2023-01-25T00:05:07.581Z,2.16
2023-01-25T00:06:07.225Z,2.16
2023-01-25T00:07:07.226Z,2.02
2023-01-25T00:08:07.201Z,1.90
2023-01-25T00:09:07.219Z,1.87
2023-01-25T00:10:07.186Z,1.84
2023-01-25T00:11:07.182Z,1.88
2023-01-25T00:12:07.159Z,1.87
2023-01-25T00:13:07.178Z,1.87
2023-01-25T00:14:07.136Z,1.87
2023-01-25T00:15:07.428Z,1.90
2023-01-25T00:16:07.181Z,1.91
2023-01-25T00:17:07.151Z,1.95
2023-01-25T00:18:07.098Z,1.95
2023-01-25T00:19:07.128Z,1.95
2023-01-25T00:20:07.109Z,1.98
2023-01-25T00:21:07.102Z,1.98
2023-01-25T00:22:07.073Z,1.95
2023-01-25T00:23:07.052Z,1.98
2023-01-25T00:24:07.065Z,1.95
2023-01-25T00:25:07.480Z,1.98
2023-01-25T00:26:07.007Z,2.00
2023-01-25T00:27:07.030Z,2.00
2023-01-25T00:28:06.990Z,1.99
2023-01-25T00:29:07.010Z,1.98
2023-01-25T00:30:06.988Z,1.99
2023-01-25T00:31:06.988Z,1.95
2023-01-25T00:32:07.094Z,1.95
2023-01-25T00:33:06.950Z,1.90
2023-01-25T00:34:06.928Z,1.90
2023-01-25T00:35:07.390Z,1.90
2023-01-25T00:36:06.903Z,1.93
2023-01-25T00:37:06.933Z,1.95
2023-01-25T00:38:06.908Z,1.98
2023-01-25T00:39:06.932Z,1.98
2023-01-25T00:40:06.867Z,1.98
2023-01-25T00:41:06.870Z,1.99
2023-01-25T00:42:06.860Z,1.95
2023-01-25T00:43:06.898Z,1.93
2023-01-25T00:44:06.830Z,1.93
2023-01-25T00:45:07.198Z,1.86
2023-01-25T00:46:06.881Z,1.84
2023-01-25T00:47:06.821Z,1.84
2023-01-25T00:48:06.778Z,1.84
2023-01-25T00:49:06.820Z,1.83
2023-01-25T00:50:06.778Z,1.79
2023-01-25T00:51:06.742Z,1.76
2023-01-25T00:52:06.781Z,1.70
2023-01-25T00:53:06.730Z,1.70
2023-01-25T00:54:06.724Z,1.69
2023-01-25T00:55:07.065Z,1.63
2023-01-25T00:56:06.716Z,1.62
2023-01-25T00:57:06.704Z,1.60
2023-01-25T00:58:06.708Z,1.60
2023-01-25T00:59:06.676Z,1.60
2023-01-25T01:00:06.661Z,1.62
2023-01-25T01:01:06.673Z,1.65
2023-01-25T01:02:06.671Z,1.63
2023-01-25T01:03:06.617Z,1.66
2023-01-25T01:04:06.708Z,1.68
2023-01-25T01:05:07.191Z,1.68
2023-01-25T01:06:06.616Z,1.68
2023-01-25T01:07:06.595Z,1.66
2023-01-25T01:08:06.587Z,1.65
2023-01-25T01:09:06.553Z,1.65
2023-01-25T01:10:06.565Z,1.63
2023-01-25T01:11:06.535Z,1.63
2023-01-25T01:12:06.538Z,1.62
2023-01-25T01:13:06.528Z,1.60
2023-01-25T01:14:06.523Z,1.59
2023-01-25T01:15:06.877Z,1.58
2023-01-25T01:16:06.496Z,1.62
2023-01-25T01:17:06.472Z,1.62
2023-01-25T01:18:06.474Z,1.65
2023-01-25T01:19:06.467Z,1.65
2023-01-25T01:20:06.468Z,1.69
2023-01-25T01:21:06.427Z,1.69
2023-01-25T01:22:06.473Z,1.69
2023-01-25T01:23:06.413Z,1.70
2023-01-25T01:24:06.491Z,1.73
2023-01-25T01:25:06.807Z,1.72
2023-01-25T01:26:06.406Z,1.73
2023-01-25T01:27:06.373Z,1.73
2023-01-25T01:28:06.387Z,1.72
2023-01-25T01:29:06.374Z,1.69
2023-01-25T01:30:06.372Z,1.66
2023-01-25T01:31:06.323Z,1.65
2023-01-25T01:32:06.455Z,1.62
2023-01-25T01:33:06.314Z,1.63
2023-01-25T01:34:06.308Z,1.60
2023-01-25T01:35:06.541Z,1.58
2023-01-25T01:36:06.286Z,1.59
2023-01-25T01:37:06.264Z,1.59
2023-01-25T01:38:06.279Z,1.55
2023-01-25T01:39:06.244Z,1.54
2023-01-25T01:40:06.256Z,1.52
2023-01-25T01:41:06.228Z,1.52
2023-01-25T01:42:06.232Z,1.52
2023-01-25T01:43:06.197Z,1.54
2023-01-25T01:44:06.216Z,1.54
2023-01-25T01:45:06.544Z,1.52
2023-01-25T01:46:06.217Z,1.51
2023-01-25T01:47:06.166Z,1.52
2023-01-25T01:48:06.172Z,1.54
2023-01-25T01:49:06.139Z,1.58
2023-01-25T01:50:06.143Z,1.59
2023-01-25T01:51:06.114Z,1.60
2023-01-25T01:52:06.139Z,1.60
2023-01-25T01:53:06.092Z,1.62
2023-01-25T01:54:06.107Z,1.63
2023-01-25T01:55:06.469Z,1.62
2023-01-25T01:56:06.089Z,1.62
2023-01-25T01:57:06.068Z,1.60
2023-01-25T01:58:06.052Z,1.59
2023-01-25T01:59:06.028Z,1.59
2023-01-25T02:00:06.027Z,1.63
2023-01-25T02:01:06.088Z,1.63
2023-01-25T02:02:06.070Z,1.66
2023-01-25T02:03:06.466Z,1.68
2023-01-25T02:04:06.011Z,1.68
2023-01-25T02:05:06.322Z,1.69
2023-01-25T02:06:05.972Z,1.69
2023-01-25T02:07:05.947Z,1.72
2023-01-25T02:08:05.969Z,1.72
2023-01-25T02:09:05.921Z,1.72
2023-01-25T02:10:05.949Z,1.76
2023-01-25T02:11:05.906Z,1.73
2023-01-25T02:12:05.929Z,1.72
2023-01-25T02:13:05.890Z,1.72
2023-01-25T02:14:05.896Z,1.69
2023-01-25T02:15:06.287Z,1.65
2023-01-25T02:16:05.898Z,1.60
2023-01-25T02:17:05.838Z,1.55
2023-01-25T02:18:05.867Z,1.54
2023-01-25T02:19:05.822Z,1.50
2023-01-25T02:20:05.851Z,1.47
2023-01-25T02:21:05.796Z,1.45
2023-01-25T02:22:05.810Z,1.42
2023-01-25T02:23:05.792Z,1.41
2023-01-25T02:24:05.835Z,1.40
2023-01-25T02:25:06.245Z,1.40
2023-01-25T02:26:05.755Z,1.40
2023-01-25T02:27:05.789Z,1.36
2023-01-25T02:28:05.755Z,1.37
2023-01-25T02:29:05.721Z,1.36
2023-01-25T02:30:05.729Z,1.37
2023-01-25T02:31:05.759Z,1.37
2023-01-25T02:32:05.813Z,1.41
2023-01-25T02:33:05.681Z,1.42
2023-01-25T02:34:05.688Z,1.45
2023-01-25T02:35:06.233Z,1.48
2023-01-25T02:36:05.669Z,1.47
2023-01-25T02:37:05.633Z,1.45
2023-01-25T02:38:05.687Z,1.45
2023-01-25T02:39:05.618Z,1.47
2023-01-25T02:40:05.611Z,1.50
2023-01-25T02:41:05.586Z,1.50
2023-01-25T02:42:05.591Z,1.48
2023-01-25T02:43:05.562Z,1.45
2023-01-25T02:44:05.597Z,1.41
2023-01-25T02:45:05.771Z,1.44
2023-01-25T02:46:05.596Z,1.41
2023-01-25T02:47:05.528Z,1.37
2023-01-25T02:48:05.541Z,1.37
2023-01-25T02:49:05.512Z,1.37
2023-01-25T02:50:05.501Z,1.37
2023-01-25T02:51:05.479Z,1.37
2023-01-25T02:52:05.513Z,1.37
2023-01-25T02:53:05.466Z,1.33
2023-01-25T02:54:05.495Z,1.33
2023-01-25T02:55:05.813Z,1.32
2023-01-25T02:56:05.451Z,1.32
2023-01-25T02:57:05.427Z,1.32
2023-01-25T02:58:05.435Z,1.32
2023-01-25T02:59:05.438Z,1.33
2023-01-25T03:00:05.401Z,1.34
2023-01-25T03:01:05.407Z,1.37
2023-01-25T03:02:05.395Z,1.40
2023-01-25T03:03:05.365Z,1.40
2023-01-25T03:04:05.387Z,1.41
2023-01-25T03:05:05.555Z,1.41
2023-01-25T03:06:05.350Z,1.41
2023-01-25T03:07:05.310Z,1.40
2023-01-25T03:08:05.323Z,1.40
2023-01-25T03:09:05.286Z,1.40
2023-01-25T03:10:05.305Z,1.33
2023-01-25T03:11:05.278Z,1.33
2023-01-25T03:12:05.290Z,1.33
2023-01-25T03:13:05.249Z,1.34
2023-01-25T03:14:05.281Z,1.36
2023-01-25T03:15:05.581Z,1.40
2023-01-25T03:16:05.312Z,1.40
2023-01-25T03:17:05.212Z,1.42
2023-01-25T03:18:05.230Z,1.41
2023-01-25T03:19:05.198Z,1.42
2023-01-25T03:20:05.186Z,1.45
2023-01-25T03:21:05.175Z,1.45
2023-01-25T03:22:05.181Z,1.45
2023-01-25T03:23:05.151Z,1.45
2023-01-25T03:24:05.209Z,1.45
2023-01-25T03:25:05.172Z,1.47
2023-01-25T03:26:05.142Z,1.47
2023-01-25T03:27:05.098Z,1.48
2023-01-25T03:28:05.102Z,1.50
2023-01-25T03:29:05.086Z,1.48
2023-01-25T03:30:05.106Z,1.51
2023-01-25T03:31:05.111Z,1.51
2023-01-25T03:32:05.267Z,1.54
2023-01-25T03:33:05.033Z,1.55
2023-01-25T03:34:05.058Z,1.58
2023-01-25T03:35:05.055Z,1.60
2023-01-25T03:36:05.060Z,1.62
2023-01-25T03:37:05.019Z,1.62
2023-01-25T03:38:05.034Z,1.62
2023-01-25T03:39:04.976Z,1.62
2023-01-25T03:40:05.008Z,1.63
2023-01-25T03:41:04.959Z,1.65
2023-01-25T03:42:04.964Z,1.63
2023-01-25T03:43:04.964Z,1.62
2023-01-25T03:44:04.939Z,1.63
2023-01-25T03:45:04.912Z,1.66
2023-01-25T03:46:04.933Z,1.66
2023-01-25T03:47:05.038Z,1.70
2023-01-25T03:48:04.918Z,1.70
2023-01-25T03:49:04.903Z,1.70
2023-01-25T03:50:04.874Z,1.73
2023-01-25T03:51:04.856Z,1.73
2023-01-25T03:52:04.875Z,1.72
2023-01-25T03:53:04.835Z,1.73
2023-01-25T03:54:04.854Z,1.73
2023-01-25T03:55:04.820Z,1.72
2023-01-25T03:56:04.815Z,1.72
2023-01-25T03:57:04.804Z,1.70
2023-01-25T03:58:04.806Z,1.69
2023-01-25T03:59:04.785Z,1.69
2023-01-25T04:00:04.806Z,1.68
2023-01-25T04:01:04.808Z,1.68
2023-01-25T04:02:04.828Z,1.66
2023-01-25T04:03:04.728Z,1.68
2023-01-25T04:04:04.732Z,1.69
2023-01-25T04:05:04.717Z,1.66
2023-01-25T04:06:04.745Z,1.65
2023-01-25T04:07:04.685Z,1.63
2023-01-25T04:08:04.693Z,1.60
2023-01-25T04:09:04.675Z,1.58
2023-01-25T04:10:04.664Z,1.55
2023-01-25T04:11:04.656Z,1.54
2023-01-25T04:12:04.651Z,1.52
2023-01-25T04:13:04.622Z,1.48
2023-01-25T04:14:04.650Z,1.45
2023-01-25T04:15:04.609Z,1.41
2023-01-25T04:16:04.630Z,1.37
2023-01-25T04:17:04.589Z,1.36
2023-01-25T04:18:04.609Z,1.36
2023-01-25T04:19:04.573Z,1.36
2023-01-25T04:20:04.581Z,1.36
2023-01-25T04:21:04.544Z,1.34
2023-01-25T04:22:04.576Z,1.33
2023-01-25T04:23:04.548Z,1.33
2023-01-25T04:24:04.565Z,1.34
2023-01-25T04:25:04.601Z,1.34
2023-01-25T04:26:04.519Z,1.33
2023-01-25T04:27:04.493Z,1.34
2023-01-25T04:28:04.500Z,1.34
2023-01-25T04:29:04.522Z,1.32
2023-01-25T04:30:04.478Z,1.30
2023-01-25T04:31:04.442Z,1.32
2023-01-25T04:32:04.590Z,1.32
2023-01-25T04:33:04.426Z,1.33
2023-01-25T04:34:04.442Z,1.34
2023-01-25T04:35:04.415Z,1.33
2023-01-25T04:36:04.420Z,1.33
2023-01-25T04:37:04.380Z,1.36
2023-01-25T04:38:04.412Z,1.37
2023-01-25T04:39:04.368Z,1.42
2023-01-25T04:40:04.395Z,1.45
2023-01-25T04:41:04.348Z,1.47
2023-01-25T04:42:04.344Z,1.45
2023-01-25T04:43:04.322Z,1.44
2023-01-25T04:44:04.323Z,1.44
2023-01-25T04:45:04.303Z,1.42
2023-01-25T04:46:04.409Z,1.44
2023-01-25T04:47:04.287Z,1.44
2023-01-25T04:48:04.284Z,1.45
2023-01-25T04:49:04.256Z,1.45
2023-01-25T04:50:06.370Z,1.47
2023-01-25T04:51:04.257Z,1.47
2023-01-25T04:52:04.253Z,1.45
2023-01-25T04:53:04.208Z,1.44
2023-01-25T04:54:04.230Z,1.44
2023-01-25T04:55:04.198Z,1.47
2023-01-25T04:56:04.209Z,1.50
2023-01-25T04:57:04.192Z,1.52
2023-01-25T04:58:04.188Z,1.52
2023-01-25T04:59:04.148Z,1.54
2023-01-25T05:00:04.175Z,1.54
2023-01-25T05:01:04.260Z,1.55
2023-01-25T05:02:04.201Z,1.52
2023-01-25T05:03:04.110Z,1.58
2023-01-25T05:04:04.111Z,1.55
2023-01-25T05:05:04.093Z,1.55
2023-01-25T05:06:04.093Z,1.55
2023-01-25T05:07:04.107Z,1.55
2023-01-25T05:08:04.060Z,1.55
2023-01-25T05:09:04.069Z,1.55
2023-01-25T05:10:04.054Z,1.55
2023-01-25T05:11:04.051Z,1.59
2023-01-25T05:12:04.016Z,1.59
2023-01-25T05:13:04.025Z,1.58
2023-01-25T05:14:03.998Z,1.59
2023-01-25T05:15:03.995Z,1.63
2023-01-25T05:16:03.990Z,1.62
2023-01-25T05:17:04.022Z,1.59
2023-01-25T05:18:03.951Z,1.59
2023-01-25T05:19:03.981Z,1.55
2023-01-25T05:20:03.955Z,1.51
2023-01-25T05:21:03.955Z,1.48
2023-01-25T05:22:03.910Z,1.48
2023-01-25T05:23:03.935Z,1.45
2023-01-25T05:24:03.974Z,1.42
2023-01-25T05:25:03.933Z,1.37
2023-01-25T05:26:03.870Z,1.40
2023-01-25T05:27:04.087Z,1.40
2023-01-25T05:28:03.889Z,1.41
2023-01-25T05:29:03.859Z,1.41
2023-01-25T05:30:03.839Z,1.37
2023-01-25T05:31:03.876Z,1.34
2023-01-25T05:32:03.876Z,1.29
2023-01-25T05:33:03.816Z,1.27
2023-01-25T05:34:03.803Z,1.27
2023-01-25T05:35:03.815Z,1.26
2023-01-25T05:36:03.791Z,1.27
2023-01-25T05:37:03.778Z,1.29
2023-01-25T05:38:03.755Z,1.29
2023-01-25T05:39:03.758Z,1.32
2023-01-25T05:40:03.734Z,1.33
2023-01-25T05:41:03.733Z,1.34
2023-01-25T05:42:03.699Z,1.32
2023-01-25T05:43:03.770Z,1.27
2023-01-25T05:44:03.699Z,1.23
2023-01-25T05:45:03.696Z,1.22
2023-01-25T05:46:03.694Z,1.22
2023-01-25T05:47:03.703Z,1.24
2023-01-25T05:48:03.645Z,1.27
2023-01-25T05:49:03.671Z,1.29
2023-01-25T05:50:03.621Z,1.30
2023-01-25T05:51:03.640Z,1.30
2023-01-25T05:52:03.602Z,1.30
2023-01-25T05:53:03.613Z,1.30
2023-01-25T05:54:03.585Z,1.26
2023-01-25T05:55:03.590Z,1.29
2023-01-25T05:56:03.561Z,1.29
2023-01-25T05:57:03.565Z,1.29
2023-01-25T05:58:03.537Z,1.32
2023-01-25T05:59:03.544Z,1.32
2023-01-25T06:00:03.516Z,1.36
2023-01-25T06:01:03.533Z,1.34
2023-01-25T06:02:03.489Z,1.40
2023-01-25T06:03:03.652Z,1.40
2023-01-25T06:04:03.488Z,1.40
2023-01-25T06:05:03.491Z,1.45
2023-01-25T06:06:03.477Z,1.47
2023-01-25T06:07:03.455Z,1.45
2023-01-25T06:08:03.430Z,1.44
2023-01-25T06:09:03.441Z,1.45
2023-01-25T06:10:03.417Z,1.44
2023-01-25T06:11:03.415Z,1.45
2023-01-25T06:12:03.390Z,1.42
2023-01-25T06:13:03.418Z,1.44
2023-01-25T06:14:03.365Z,1.42
2023-01-25T06:15:03.410Z,1.41
2023-01-25T06:16:03.423Z,1.40
2023-01-25T06:17:03.366Z,1.37
2023-01-25T06:18:03.328Z,1.37
2023-01-25T06:19:03.352Z,1.33
2023-01-25T06:20:03.307Z,1.32
2023-01-25T06:21:03.343Z,1.33
2023-01-25T06:22:03.284Z,1.30
2023-01-25T06:23:03.292Z,1.32
2023-01-25T06:24:03.326Z,1.30
2023-01-25T06:25:03.291Z,1.27
2023-01-25T06:26:03.246Z,1.24
2023-01-25T06:27:03.269Z,1.23
2023-01-25T06:28:03.219Z,1.23
2023-01-25T06:29:03.247Z,1.22
2023-01-25T06:30:03.199Z,1.22
2023-01-25T06:31:03.295Z,1.23
2023-01-25T06:32:03.235Z,1.22
2023-01-25T06:33:03.150Z,1.22
2023-01-25T06:34:03.153Z,1.22
2023-01-25T06:35:03.190Z,1.22
2023-01-25T06:36:03.095Z,1.20
2023-01-25T06:37:03.141Z,1.18
2023-01-25T06:38:03.075Z,1.20
2023-01-25T06:39:03.065Z,1.22
2023-01-25T06:40:03.096Z,1.20
2023-01-25T06:41:03.178Z,1.23
2023-01-25T06:42:03.082Z,1.22
2023-01-25T06:43:03.072Z,1.23
2023-01-25T06:44:03.024Z,1.22
2023-01-25T06:45:03.069Z,1.22
2023-01-25T06:46:02.984Z,1.22
2023-01-25T06:47:03.038Z,1.26
2023-01-25T06:48:03.009Z,1.24
2023-01-25T06:49:03.034Z,1.23
2023-01-25T06:50:02.987Z,1.27
2023-01-25T06:51:03.004Z,1.26
2023-01-25T06:52:02.960Z,1.27
2023-01-25T06:53:02.940Z,1.27
2023-01-25T06:54:02.905Z,1.26
2023-01-25T06:55:02.938Z,1.20
2023-01-25T06:56:02.881Z,1.18
2023-01-25T06:57:03.068Z,1.15
2023-01-25T06:58:02.851Z,1.11
2023-01-25T06:59:02.865Z,1.08
2023-01-25T07:00:02.857Z,1.08
2023-01-25T07:01:02.856Z,1.08
2023-01-25T07:02:02.963Z,1.06
2023-01-25T07:03:02.860Z,1.08
2023-01-25T07:04:02.793Z,1.08
2023-01-25T07:05:02.804Z,1.06
2023-01-25T07:06:02.774Z,1.06
2023-01-25T07:07:02.766Z,1.05
2023-01-25T07:08:02.775Z,1.05
2023-01-25T07:09:02.747Z,1.06
2023-01-25T07:10:02.754Z,1.08
2023-01-25T07:11:02.729Z,1.09
2023-01-25T07:12:02.710Z,1.14
2023-01-25T07:13:02.710Z,1.14
2023-01-25T07:14:02.686Z,1.14
2023-01-25T07:15:02.722Z,1.16
2023-01-25T07:16:02.691Z,1.15
2023-01-25T07:17:03.936Z,1.14
2023-01-25T07:18:14.955Z,1.14
2023-01-25T07:19:02.680Z,1.15
2023-01-25T07:20:02.623Z,1.16
2023-01-25T07:21:02.649Z,1.18
2023-01-25T07:22:02.597Z,1.22
2023-01-25T07:23:02.614Z,1.22
2023-01-25T07:24:02.652Z,1.23
2023-01-25T07:25:02.633Z,1.26
2023-01-25T07:26:02.560Z,1.26
2023-01-25T07:27:02.580Z,1.24
2023-01-25T07:28:02.535Z,1.24
2023-01-25T07:29:02.537Z,1.24
2023-01-25T07:30:02.540Z,1.23
2023-01-25T07:31:02.543Z,1.24
2023-01-25T07:32:02.491Z,1.24
2023-01-25T07:33:02.516Z,1.24
2023-01-25T07:34:02.516Z,1.22
2023-01-25T07:35:02.499Z,1.18
2023-01-25T07:36:02.490Z,1.16
2023-01-25T07:37:02.494Z,1.16
2023-01-25T07:38:02.488Z,1.16
2023-01-25T07:39:02.468Z,1.16
2023-01-25T07:40:02.414Z,1.20
2023-01-25T07:41:02.440Z,1.22
2023-01-25T07:42:02.445Z,1.18
2023-01-25T07:43:02.422Z,1.18
2023-01-25T07:44:02.408Z,1.14
2023-01-25T07:45:02.379Z,1.14
2023-01-25T07:46:02.438Z,1.14
2023-01-25T07:47:02.360Z,1.14
2023-01-25T07:48:02.354Z,1.14
2023-01-25T07:49:02.389Z,1.14
2023-01-25T07:50:02.340Z,1.15
2023-01-25T07:51:02.316Z,1.14
2023-01-25T07:52:02.306Z,1.16
2023-01-25T07:53:02.325Z,1.14
2023-01-25T07:54:02.309Z,1.15
2023-01-25T07:55:02.285Z,1.16
2023-01-25T07:56:02.251Z,1.18
2023-01-25T07:57:02.294Z,1.22
2023-01-25T07:58:02.236Z,1.26
2023-01-25T07:59:02.286Z,1.27
2023-01-25T08:00:02.204Z,1.32
2023-01-25T08:01:02.237Z,1.33
2023-01-25T08:02:02.205Z,1.33
2023-01-25T08:03:02.215Z,1.32
2023-01-25T08:04:02.173Z,1.26
2023-01-25T08:05:02.201Z,1.22
2023-01-25T08:06:02.178Z,1.15
2023-01-25T08:07:02.177Z,1.15
2023-01-25T08:08:02.137Z,1.15
2023-01-25T08:09:02.162Z,1.14
2023-01-25T08:10:02.125Z,1.16
2023-01-25T08:11:02.128Z,1.18
2023-01-25T08:12:02.089Z,1.22
2023-01-25T08:13:02.162Z,1.22
2023-01-25T08:14:02.127Z,1.18
2023-01-25T08:15:02.081Z,1.14
2023-01-25T08:16:02.056Z,1.16
2023-01-25T08:17:02.062Z,1.16
2023-01-25T08:18:02.048Z,1.18
2023-01-25T08:19:02.046Z,1.22
2023-01-25T08:20:02.025Z,1.20
2023-01-25T08:21:02.021Z,1.23
2023-01-25T08:22:02.007Z,1.20
2023-01-25T08:23:02.002Z,1.20
2023-01-25T08:24:02.007Z,1.18
2023-01-25T08:25:02.001Z,1.16
2023-01-25T08:26:01.958Z,1.22
2023-01-25T08:27:01.964Z,1.22
2023-01-25T08:28:01.958Z,1.26
2023-01-25T08:29:01.948Z,1.27
2023-01-25T08:30:01.919Z,1.27
2023-01-25T08:31:01.912Z,1.27
2023-01-25T08:32:01.976Z,1.29
2023-01-25T08:33:01.888Z,1.27
2023-01-25T08:34:01.911Z,1.22
2023-01-25T08:35:01.871Z,1.23
2023-01-25T08:36:01.844Z,1.23
2023-01-25T08:37:01.853Z,1.23
2023-01-25T08:38:01.818Z,1.23
2023-01-25T08:39:01.843Z,1.24
2023-01-25T08:40:01.809Z,1.26
2023-01-25T08:41:01.800Z,1.27
2023-01-25T08:42:01.783Z,1.27
2023-01-25T08:43:01.797Z,1.29
2023-01-25T08:44:01.838Z,1.30
2023-01-25T08:45:01.787Z,1.30
2023-01-25T08:46:01.741Z,1.30
2023-01-25T08:47:01.768Z,1.30
2023-01-25T08:48:01.781Z,1.29
2023-01-25T08:49:01.719Z,1.26
2023-01-25T08:50:01.726Z,1.26
2023-01-25T08:51:01.737Z,1.26
2023-01-25T08:52:01.681Z,1.26
2023-01-25T08:53:01.703Z,1.27
2023-01-25T08:54:01.669Z,1.32
2023-01-25T08:55:01.673Z,1.30
2023-01-25T08:56:01.664Z,1.30
2023-01-25T08:57:01.666Z,1.27
2023-01-25T08:58:01.623Z,1.27
2023-01-25T08:59:01.643Z,1.26
2023-01-25T09:00:01.593Z,1.20
2023-01-25T09:01:01.612Z,1.20
2023-01-25T09:02:01.595Z,1.15
2023-01-25T09:03:01.584Z,1.16
2023-01-25T09:04:01.732Z,1.16
2023-01-25T09:05:01.579Z,1.16
2023-01-25T09:06:01.586Z,1.20
2023-01-25T09:07:01.563Z,1.23
2023-01-25T09:08:01.507Z,1.24
2023-01-25T09:09:01.547Z,1.27
2023-01-25T09:10:01.497Z,1.27
2023-01-25T09:11:01.517Z,1.24
2023-01-25T09:12:01.505Z,1.23
2023-01-25T09:13:01.470Z,1.20
2023-01-25T09:14:01.527Z,1.18
2023-01-25T09:15:01.459Z,1.16
2023-01-25T09:16:01.421Z,1.15
2023-01-25T09:17:01.466Z,1.12
2023-01-25T09:18:01.417Z,1.11
2023-01-25T09:19:01.448Z,1.09
2023-01-25T09:20:01.387Z,1.11
2023-01-25T09:21:01.380Z,1.14
2023-01-25T09:22:01.389Z,1.16
2023-01-25T09:23:01.387Z,1.18
2023-01-25T09:24:06.361Z,1.20
2023-01-25T09:25:01.412Z,1.23
2023-01-25T09:26:01.355Z,1.26
2023-01-25T09:27:01.326Z,1.26
2023-01-25T09:28:01.317Z,1.29
2023-01-25T09:29:01.304Z,1.29
2023-01-25T09:30:03.187Z,1.32
2023-01-25T09:31:20.035Z,1.29
2023-01-25T09:32:01.440Z,1.27
2023-01-25T09:33:01.321Z,1.26
2023-01-25T09:34:01.263Z,1.22
2023-01-25T09:35:01.239Z,1.23
2023-01-25T09:36:01.269Z,1.29
2023-01-25T09:37:01.250Z,1.30
2023-01-25T09:38:01.290Z,1.33
2023-01-25T09:39:01.185Z,1.37
2023-01-25T09:40:01.198Z,1.37
2023-01-25T09:41:01.166Z,1.36
2023-01-25T09:42:06.604Z,1.37
2023-01-25T09:43:01.152Z,1.40
2023-01-25T09:44:13.596Z,1.40
2023-01-25T09:45:01.151Z,1.36
2023-01-25T09:46:01.147Z,1.37
2023-01-25T09:47:01.117Z,1.37
2023-01-25T09:48:01.131Z,1.37
2023-01-25T09:49:07.303Z,1.41
2023-01-25T09:50:01.131Z,1.42
2023-01-25T09:51:01.059Z,1.44
2023-01-25T09:52:01.064Z,1.45
2023-01-25T09:53:01.038Z,1.45
2023-01-25T09:54:01.118Z,1.47
2023-01-25T09:55:01.020Z,1.50
2023-01-25T09:56:01.036Z,1.52
2023-01-25T09:57:00.999Z,1.51
2023-01-25T09:58:01.007Z,1.47
2023-01-25T09:59:01.056Z,1.42
2023-01-25T10:00:01.852Z,1.41
2023-01-25T10:01:00.986Z,1.41
2023-01-25T10:02:01.012Z,1.41
2023-01-25T10:03:00.958Z,1.44
2023-01-25T10:04:00.939Z,1.45
2023-01-25T10:05:00.919Z,1.48
2023-01-25T10:06:00.914Z,1.51
2023-01-25T10:07:01.789Z,1.51
2023-01-25T10:08:00.892Z,1.50
2023-01-25T10:09:00.900Z,1.47
2023-01-25T10:10:00.915Z,1.41
2023-01-25T10:11:00.844Z,1.36
2023-01-25T10:12:00.876Z,1.33
2023-01-25T10:13:00.827Z,1.32
2023-01-25T10:14:00.872Z,1.32
2023-01-25T10:15:00.803Z,1.33
2023-01-25T10:16:00.897Z,1.33
2023-01-25T10:17:00.791Z,1.36
2023-01-25T10:18:00.820Z,1.41
2023-01-25T10:19:00.791Z,1.41
2023-01-25T10:20:00.816Z,1.41
2023-01-25T10:21:00.756Z,1.44
2023-01-25T10:22:00.781Z,1.44
2023-01-25T10:23:00.740Z,1.45
2023-01-25T10:24:00.767Z,1.47
2023-01-25T10:25:00.724Z,1.48
2023-01-25T10:26:00.737Z,1.52
2023-01-25T10:27:00.708Z,1.55
2023-01-25T10:28:00.687Z,1.59
2023-01-25T10:29:00.674Z,1.62
2023-01-25T10:30:00.674Z,1.65
2023-01-25T10:31:00.790Z,1.65
2023-01-25T10:32:00.687Z,1.69
2023-01-25T10:33:00.639Z,1.66
2023-01-25T10:34:00.621Z,1.63
2023-01-25T10:35:00.602Z,1.66
2023-01-25T10:36:00.620Z,1.62
2023-01-25T10:37:00.582Z,1.62
2023-01-25T10:38:00.635Z,1.62
2023-01-25T10:39:00.560Z,1.62
2023-01-25T10:40:00.588Z,1.60
2023-01-25T10:41:00.545Z,1.59
2023-01-25T10:42:00.556Z,1.55
2023-01-25T10:43:00.511Z,1.52
2023-01-25T10:44:00.529Z,1.55
2023-01-25T10:45:00.502Z,1.58
2023-01-25T10:46:00.517Z,1.60
2023-01-25T10:47:00.477Z,1.62
2023-01-25T10:48:00.489Z,1.66
2023-01-25T10:49:00.455Z,1.66
2023-01-25T10:50:00.488Z,1.70
2023-01-25T10:51:00.486Z,1.73
2023-01-25T10:52:00.582Z,1.76
2023-01-25T10:53:00.411Z,1.73
2023-01-25T10:54:00.420Z,1.73
2023-01-25T10:55:00.425Z,1.77
2023-01-25T10:56:00.408Z,1.72
2023-01-25T10:57:00.381Z,1.72
2023-01-25T10:58:00.396Z,1.72
2023-01-25T10:59:00.349Z,1.72
2023-01-25T11:00:00.361Z,1.70
2023-01-25T11:01:00.333Z,1.69
2023-01-25T11:02:00.366Z,1.63
2023-01-25T11:03:00.415Z,1.60
2023-01-25T11:04:00.338Z,1.60
2023-01-25T11:05:00.276Z,1.58
2023-01-25T11:06:00.289Z,1.55
2023-01-25T11:07:00.275Z,1.55
2023-01-25T11:08:00.277Z,1.58
2023-01-25T11:09:00.230Z,1.58
2023-01-25T11:10:00.499Z,1.58
2023-01-25T11:11:00.213Z,1.59
2023-01-25T11:12:00.223Z,1.62
2023-01-25T11:13:00.215Z,1.62
2023-01-25T11:14:00.246Z,1.65
2023-01-25T11:15:00.196Z,1.63
2023-01-25T11:16:00.252Z,1.68
2023-01-25T11:17:00.160Z,1.65
2023-01-25T11:18:00.193Z,1.62
2023-01-25T11:19:00.149Z,1.62
2023-01-25T11:20:00.166Z,1.63
2023-01-25T11:21:00.120Z,1.66
2023-01-25T11:22:00.130Z,1.69
2023-01-25T11:23:00.148Z,1.70
2023-01-25T11:24:00.172Z,1.70
2023-01-25T11:25:00.084Z,1.66
2023-01-25T11:26:00.103Z,1.63
2023-01-25T11:27:00.049Z,1.59
2023-01-25T11:28:00.095Z,1.60
2023-01-25T11:29:00.021Z,1.62
2023-01-25T11:30:00.044Z,1.68
2023-01-25T11:31:00.075Z,1.73
2023-01-25T11:32:00.133Z,1.79
2023-01-25T11:33:00.015Z,1.81
2023-01-25T11:34:00.011Z,1.84
2023-01-25T11:35:00.220Z,1.84
2023-01-25T11:35:59.985Z,1.84
2023-01-25T11:36:59.936Z,1.83
2023-01-25T11:37:59.958Z,1.83
2023-01-25T11:38:59.925Z,1.80
2023-01-25T11:39:59.942Z,1.79
2023-01-25T11:40:59.915Z,1.79
2023-01-25T11:41:59.926Z,1.73
2023-01-25T11:42:59.895Z,1.72
2023-01-25T11:43:59.889Z,1.73
2023-01-25T11:44:59.880Z,1.73
2023-01-25T11:45:59.934Z,1.76
2023-01-25T11:46:59.858Z,1.73
2023-01-25T11:47:59.842Z,1.79
2023-01-25T11:48:59.821Z,1.79
2023-01-25T11:49:59.819Z,1.84
2023-01-25T11:50:59.790Z,1.88
2023-01-25T11:51:59.798Z,1.90
2023-01-25T11:52:59.795Z,1.93
2023-01-25T11:53:59.794Z,1.91
2023-01-25T11:54:59.779Z,1.90
2023-01-25T11:55:59.761Z,1.87
2023-01-25T11:56:59.786Z,1.88
2023-01-25T11:57:59.742Z,1.86
2023-01-25T11:58:59.730Z,1.84
2023-01-25T11:59:59.725Z,1.83
2023-01-25T12:00:59.690Z,1.81
2023-01-25T12:01:59.707Z,1.81
2023-01-25T12:02:59.721Z,1.77
2023-01-25T12:03:59.766Z,1.77
2023-01-25T12:05:02.340Z,1.73
2023-01-25T12:05:59.665Z,1.72
2023-01-25T12:06:59.630Z,1.69
2023-01-25T12:07:59.643Z,1.65
2023-01-25T12:08:59.627Z,1.65
2023-01-25T12:09:59.628Z,1.65
2023-01-25T12:10:59.584Z,1.65
2023-01-25T12:11:59.599Z,1.68
2023-01-25T12:12:59.613Z,1.70
2023-01-25T12:13:59.602Z,1.76
2023-01-25T12:14:59.543Z,1.80
2023-01-25T12:15:59.570Z,1.81
2023-01-25T12:17:00.158Z,1.86
2023-01-25T12:17:59.539Z,1.86
2023-01-25T12:18:59.520Z,1.86
2023-01-25T12:19:59.537Z,1.84
2023-01-25T12:20:59.475Z,1.87
2023-01-25T12:21:59.504Z,1.84
2023-01-25T12:22:59.457Z,1.83
2023-01-25T12:23:59.473Z,1.79
2023-01-25T12:24:59.428Z,1.79
2023-01-25T12:25:59.455Z,1.73
2023-01-25T12:26:59.410Z,1.73
2023-01-25T12:27:59.424Z,1.69
2023-01-25T12:28:59.393Z,1.66
2023-01-25T12:29:59.403Z,1.66
2023-01-25T12:30:59.535Z,1.68
2023-01-25T12:31:59.446Z,1.68
2023-01-25T12:33:08.951Z,1.66
2023-01-25T12:34:00.549Z,1.63
2023-01-25T12:34:59.323Z,1.59
2023-01-25T12:35:59.381Z,1.55
2023-01-25T12:36:59.302Z,1.54
2023-01-25T12:37:59.331Z,1.50
2023-01-25T12:38:59.300Z,1.52
2023-01-25T12:39:59.272Z,1.55
2023-01-25T12:40:59.290Z,1.59
2023-01-25T12:41:59.277Z,1.62
2023-01-25T12:42:59.305Z,1.62
2023-01-25T12:43:59.265Z,1.65
2023-01-25T12:44:59.256Z,1.60
2023-01-25T12:45:59.230Z,1.62
2023-01-25T12:46:59.386Z,1.62
2023-01-25T12:47:59.222Z,1.63
2023-01-25T12:48:59.182Z,1.65
2023-01-25T12:49:59.214Z,1.62
2023-01-25T12:50:59.160Z,1.63
2023-01-25T12:51:59.205Z,1.62
2023-01-25T12:52:59.141Z,1.59
2023-01-25T12:53:59.154Z,1.54
2023-01-25T12:54:59.137Z,1.58
2023-01-25T12:55:59.129Z,1.58
2023-01-25T12:56:59.094Z,1.59
2023-01-25T12:57:59.106Z,1.58
2023-01-25T12:58:59.090Z,1.55
2023-01-25T12:59:59.092Z,1.54
2023-01-25T13:00:59.078Z,1.52
2023-01-25T13:01:59.086Z,1.48
2023-01-25T13:02:59.052Z,1.48
2023-01-25T13:03:59.056Z,1.45
2023-01-25T13:04:59.040Z,1.48
2023-01-25T13:05:59.039Z,1.50
2023-01-25T13:06:58.989Z,1.52
2023-01-25T13:07:58.996Z,1.58
2023-01-25T13:08:58.966Z,1.50
2023-01-25T13:09:58.969Z,1.42
2023-01-25T13:10:58.966Z,1.36
2023-01-25T13:11:58.953Z,1.34
2023-01-25T13:12:58.940Z,1.34
2023-01-25T13:13:59.719Z,1.37
2023-01-25T13:14:58.907Z,1.40
2023-01-25T13:15:58.951Z,1.44
2023-01-25T13:17:09.720Z,1.47
2023-01-25T13:17:58.908Z,1.47